sensor_id;sensor_type;location;lat;lon;timestamp;pressure;altitude;pressure_sealevel;temperature;humidity
62436;BME280;48480;50.252;18.848;2022-10-19T04:57:24;99375.65;;;12.04;84.41
62436;BME280;48480;50.252;18.848;2022-10-19T04:59:49;99376.22;;;12.00;84.31
62436;BME280;48480;50.252;18.848;2022-10-19T05:02:15;99374.06;;;11.98;84.00
62436;BME280;48480;50.252;18.848;2022-10-19T05:04:40;99374.92;;;11.95;83.57
62436;BME280;48480;50.252;18.848;2022-10-19T05:07:06;99370.54;;;11.90;83.56
62436;BME280;48480;50.252;18.848;2022-10-19T05:09:31;99369.56;;;11.88;83.66
62436;BME280;48480;50.252;18.848;2022-10-19T05:11:57;99372.99;;;11.87;83.74
62436;BME280;48480;50.252;18.848;2022-10-19T05:14:22;99371.87;;;11.88;83.83
62436;BME280;48480;50.252;18.848;2022-10-19T05:16:48;99365.20;;;11.89;83.84
62436;BME280;48480;50.252;18.848;2022-10-19T05:19:13;99362.09;;;11.91;83.91
62436;BME280;48480;50.252;18.848;2022-10-19T05:21:39;99360.88;;;11.93;83.75
62436;BME280;48480;50.252;18.848;2022-10-19T05:24:04;99355.94;;;11.95;83.78
62436;BME280;48480;50.252;18.848;2022-10-19T05:26:30;99354.84;;;11.96;83.65
62436;BME280;48480;50.252;18.848;2022-10-19T05:28:59;99356.83;;;11.96;83.63
62436;BME280;48480;50.252;18.848;2022-10-19T05:31:31;99357.69;;;11.98;83.56
62436;BME280;48480;50.252;18.848;2022-10-19T05:33:57;99349.11;;;12.00;83.56
62436;BME280;48480;50.252;18.848;2022-10-19T05:36:24;99349.19;;;12.02;83.52
62436;BME280;48480;50.252;18.848;2022-10-19T05:38:54;99349.79;;;12.01;83.68
62436;BME280;48480;50.252;18.848;2022-10-19T05:41:21;99358.51;;;12.03;83.86
62436;BME280;48480;50.252;18.848;2022-10-19T05:43:55;99361.54;;;12.07;84.05
62436;BME280;48480;50.252;18.848;2022-10-19T05:46:21;99365.16;;;12.12;84.16
62436;BME280;48480;50.252;18.848;2022-10-19T05:48:47;99372.59;;;12.11;84.05
62436;BME280;48480;50.252;18.848;2022-10-19T05:51:16;99369.13;;;12.07;84.17
62436;BME280;48480;50.252;18.848;2022-10-19T05:53:43;99368.55;;;12.09;84.25
62436;BME280;48480;50.252;18.848;2022-10-19T05:56:13;99372.76;;;12.08;84.19
62436;BME280;48480;50.252;18.848;2022-10-19T05:58:38;99369.91;;;12.08;84.23
62436;BME280;48480;50.252;18.848;2022-10-19T06:01:05;99374.93;;;12.09;84.20
62436;BME280;48480;50.252;18.848;2022-10-19T06:03:30;99374.88;;;12.09;84.09
62436;BME280;48480;50.252;18.848;2022-10-19T06:05:56;99383.44;;;12.12;84.21
62436;BME280;48480;50.252;18.848;2022-10-19T06:08:23;99386.19;;;12.14;84.20
62436;BME280;48480;50.252;18.848;2022-10-19T06:10:49;99349.48;;;11.88;84.16
62436;BME280;48480;50.252;18.848;2022-10-19T06:13:16;99387.11;;;12.11;84.33
62436;BME280;48480;50.252;18.848;2022-10-19T06:15:42;99390.09;;;12.12;84.30
62436;BME280;48480;50.252;18.848;2022-10-19T06:18:11;99387.98;;;12.13;84.20
62436;BME280;48480;50.252;18.848;2022-10-19T06:20:39;99397.33;;;12.16;84.22
62436;BME280;48480;50.252;18.848;2022-10-19T06:23:05;99398.54;;;12.18;84.23
62436;BME280;48480;50.252;18.848;2022-10-19T06:25:32;99401.27;;;12.21;84.20
62436;BME280;48480;50.252;18.848;2022-10-19T06:27:58;99400.63;;;12.22;84.05
62436;BME280;48480;50.252;18.848;2022-10-19T06:30:25;99399.75;;;12.19;84.01
62436;BME280;48480;50.252;18.848;2022-10-19T06:32:50;99407.28;;;12.16;84.20
62436;BME280;48480;50.252;18.848;2022-10-19T06:35:16;99411.27;;;12.13;84.42
62436;BME280;48480;50.252;18.848;2022-10-19T06:37:46;99388.48;;;11.95;84.39
62436;BME280;48480;50.252;18.848;2022-10-19T06:40:11;99375.27;;;11.86;84.50
62436;BME280;48480;50.252;18.848;2022-10-19T06:42:37;99411.58;;;12.06;84.48
62436;BME280;48480;50.252;18.848;2022-10-19T06:45:10;99410.84;;;12.03;84.68
62436;BME280;48480;50.252;18.848;2022-10-19T06:47:37;99409.70;;;12.03;84.86
62436;BME280;48480;50.252;18.848;2022-10-19T06:52:36;99416.69;;;12.14;84.63
62436;BME280;48480;50.252;18.848;2022-10-19T06:55:03;99424.95;;;12.18;84.43
62436;BME280;48480;50.252;18.848;2022-10-19T06:57:30;99424.09;;;12.17;84.36
62436;BME280;48480;50.252;18.848;2022-10-19T06:59:56;99432.66;;;12.19;84.54
62436;BME280;48480;50.252;18.848;2022-10-19T07:02:22;99431.99;;;12.20;84.50
62436;BME280;48480;50.252;18.848;2022-10-19T07:04:49;99430.85;;;12.18;84.42
62436;BME280;48480;50.252;18.848;2022-10-19T07:07:15;99400.88;;;12.01;84.53
62436;BME280;48480;50.252;18.848;2022-10-19T07:09:41;99430.73;;;12.21;84.50
62436;BME280;48480;50.252;18.848;2022-10-19T07:12:10;99438.63;;;12.22;84.50
62436;BME280;48480;50.252;18.848;2022-10-19T07:14:36;99442.41;;;12.21;84.27
62436;BME280;48480;50.252;18.848;2022-10-19T07:17:09;99435.23;;;12.12;84.07
62436;BME280;48480;50.252;18.848;2022-10-19T07:19:35;99445.46;;;12.19;84.18
62436;BME280;48480;50.252;18.848;2022-10-19T07:22:03;99448.64;;;12.21;84.26
62436;BME280;48480;50.252;18.848;2022-10-19T07:24:29;99446.77;;;12.21;83.95
62436;BME280;48480;50.252;18.848;2022-10-19T07:26:55;99448.38;;;12.21;83.75
62436;BME280;48480;50.252;18.848;2022-10-19T07:29:21;99450.45;;;12.24;83.68
62436;BME280;48480;50.252;18.848;2022-10-19T07:31:49;99444.11;;;12.29;83.62
62436;BME280;48480;50.252;18.848;2022-10-19T07:34:15;99440.23;;;12.40;83.64
62436;BME280;48480;50.252;18.848;2022-10-19T07:36:43;99437.89;;;12.51;83.12
62436;BME280;48480;50.252;18.848;2022-10-19T07:39:10;99431.48;;;12.53;82.47
62436;BME280;48480;50.252;18.848;2022-10-19T07:41:37;99438.75;;;12.60;81.35
62436;BME280;48480;50.252;18.848;2022-10-19T07:44:05;99438.34;;;12.59;81.07
62436;BME280;48480;50.252;18.848;2022-10-19T07:46:31;99439.79;;;12.59;81.05
62436;BME280;48480;50.252;18.848;2022-10-19T07:49:03;99434.17;;;12.60;80.71
62436;BME280;48480;50.252;18.848;2022-10-19T07:51:30;99430.17;;;12.58;80.72
62436;BME280;48480;50.252;18.848;2022-10-19T07:53:58;99431.58;;;12.58;80.41
62436;BME280;48480;50.252;18.848;2022-10-19T07:56:25;99431.03;;;12.56;79.98
62436;BME280;48480;50.252;18.848;2022-10-19T07:58:54;99437.14;;;12.50;79.77
62436;BME280;48480;50.252;18.848;2022-10-19T08:01:22;99440.17;;;12.47;79.53
62436;BME280;48480;50.252;18.848;2022-10-19T08:03:51;99448.96;;;12.41;79.62
62436;BME280;48480;50.252;18.848;2022-10-19T08:06:18;99448.45;;;12.40;78.77
62436;BME280;48480;50.252;18.848;2022-10-19T08:08:46;99456.04;;;12.35;77.59
62436;BME280;48480;50.252;18.848;2022-10-19T08:11:19;99452.77;;;12.32;75.44
62436;BME280;48480;50.252;18.848;2022-10-19T08:13:46;99440.75;;;12.28;74.63
62436;BME280;48480;50.252;18.848;2022-10-19T08:19:12;99462.29;;;12.47;73.31
62436;BME280;48480;50.252;18.848;2022-10-19T08:21:41;99455.21;;;12.49;72.33
62436;BME280;48480;50.252;18.848;2022-10-19T08:24:07;99447.32;;;12.60;71.80
62436;BME280;48480;50.252;18.848;2022-10-19T08:26:35;99435.02;;;12.74;70.61
62436;BME280;48480;50.252;18.848;2022-10-19T08:29:05;99443.20;;;12.89;70.45
62436;BME280;48480;50.252;18.848;2022-10-19T08:31:31;99445.48;;;12.97;70.76
62436;BME280;48480;50.252;18.848;2022-10-19T08:33:57;99445.99;;;13.04;70.78
62436;BME280;48480;50.252;18.848;2022-10-19T08:36:23;99439.17;;;13.06;69.71
62436;BME280;48480;50.252;18.848;2022-10-19T08:38:49;99448.73;;;13.13;68.41
62436;BME280;48480;50.252;18.848;2022-10-19T08:41:32;99444.36;;;13.16;68.82
62436;BME280;48480;50.252;18.848;2022-10-19T08:49:17;99455.75;;;13.62;67.99
62436;BME280;48480;50.252;18.848;2022-10-19T08:51:55;99459.19;;;13.94;65.64
62436;BME280;48480;50.252;18.848;2022-10-19T08:54:24;99462.84;;;13.91;64.11
62436;BME280;48480;50.252;18.848;2022-10-19T09:08:08;99462.40;;;13.14;66.29
62436;BME280;48480;50.252;18.848;2022-10-19T09:10:38;99465.54;;;13.11;66.32
62436;BME280;48480;50.252;18.848;2022-10-19T09:13:31;99468.53;;;13.10;66.56
62436;BME280;48480;50.252;18.848;2022-10-19T09:16:03;99477.63;;;13.12;66.78
62436;BME280;48480;50.252;18.848;2022-10-19T09:18:33;99441.45;;;12.92;66.40
62436;BME280;48480;50.252;18.848;2022-10-19T09:21:18;99476.91;;;13.17;66.84
62436;BME280;48480;50.252;18.848;2022-10-19T09:23:54;99479.10;;;13.21;66.53
62436;BME280;48480;50.252;18.848;2022-10-19T09:26:27;99477.03;;;13.15;65.87
62436;BME280;48480;50.252;18.848;2022-10-19T09:28:57;99470.96;;;13.08;64.94
62436;BME280;48480;50.252;18.848;2022-10-19T09:31:33;99468.13;;;13.00;64.44
62436;BME280;48480;50.252;18.848;2022-10-19T09:34:15;99466.48;;;12.97;64.34
62436;BME280;48480;50.252;18.848;2022-10-19T09:36:57;99469.52;;;12.89;64.69
62436;BME280;48480;50.252;18.848;2022-10-19T09:39:25;99470.38;;;12.78;64.79
62436;BME280;48480;50.252;18.848;2022-10-19T09:41:58;99478.35;;;12.72;65.09
62436;BME280;48480;50.252;18.848;2022-10-19T09:44:29;99477.72;;;12.70;65.00
62436;BME280;48480;50.252;18.848;2022-10-19T09:50:15;99471.35;;;12.58;65.89
62436;BME280;48480;50.252;18.848;2022-10-19T09:52:51;99480.95;;;12.63;65.68
62436;BME280;48480;50.252;18.848;2022-10-19T09:58:01;99485.88;;;12.59;66.25
62436;BME280;48480;50.252;18.848;2022-10-19T10:00:34;99472.98;;;12.52;66.10
62436;BME280;48480;50.252;18.848;2022-10-19T10:03:00;99476.80;;;12.56;66.08
62436;BME280;48480;50.252;18.848;2022-10-19T10:05:36;99478.83;;;12.56;66.04
62436;BME280;48480;50.252;18.848;2022-10-19T10:08:04;99480.84;;;12.61;65.89
62436;BME280;48480;50.252;18.848;2022-10-19T10:10:43;99477.89;;;12.57;65.41
62436;BME280;48480;50.252;18.848;2022-10-19T10:13:16;99481.30;;;12.54;65.54
62436;BME280;48480;50.252;18.848;2022-10-19T10:15:46;99465.23;;;12.41;65.44
62436;BME280;48480;50.252;18.848;2022-10-19T10:18:14;99475.82;;;12.49;65.12
62436;BME280;48480;50.252;18.848;2022-10-19T10:21:02;99478.70;;;12.45;64.75
62436;BME280;48480;50.252;18.848;2022-10-19T10:23:31;99474.39;;;12.40;64.63
62436;BME280;48480;50.252;18.848;2022-10-19T10:25:59;99469.73;;;12.37;64.07
62436;BME280;48480;50.252;18.848;2022-10-19T10:28:27;99468.70;;;12.32;64.16
62436;BME280;48480;50.252;18.848;2022-10-19T10:31:01;99472.42;;;12.31;64.59
62436;BME280;48480;50.252;18.848;2022-10-19T10:33:30;99474.89;;;12.34;64.65
62436;BME280;48480;50.252;18.848;2022-10-19T10:36:06;99463.20;;;12.25;64.43
62436;BME280;48480;50.252;18.848;2022-10-19T10:38:34;99477.50;;;12.35;64.58
62436;BME280;48480;50.252;18.848;2022-10-19T10:41:03;99477.70;;;12.39;64.55
62436;BME280;48480;50.252;18.848;2022-10-19T10:43:34;99474.45;;;12.42;64.54
62436;BME280;48480;50.252;18.848;2022-10-19T10:46:12;99473.95;;;12.48;64.39
62436;BME280;48480;50.252;18.848;2022-10-19T10:48:43;99472.81;;;12.51;64.13
62436;BME280;48480;50.252;18.848;2022-10-19T10:51:19;99468.64;;;12.52;63.92
62436;BME280;48480;50.252;18.848;2022-10-19T10:53:47;99468.86;;;12.52;63.76
62436;BME280;48480;50.252;18.848;2022-10-19T10:56:27;99469.58;;;12.49;63.55
62436;BME280;48480;50.252;18.848;2022-10-19T10:59:01;99453.63;;;12.39;63.75
62436;BME280;48480;50.252;18.848;2022-10-19T11:01:35;99461.80;;;12.40;63.82
62436;BME280;48480;50.252;18.848;2022-10-19T11:04:10;99467.33;;;12.38;64.26
62436;BME280;48480;50.252;18.848;2022-10-19T11:06:52;99469.08;;;12.36;64.34
62436;BME280;48480;50.252;18.848;2022-10-19T11:12:12;99469.79;;;12.37;63.88
62436;BME280;48480;50.252;18.848;2022-10-19T11:14:47;99465.66;;;12.36;63.96
62436;BME280;48480;50.252;18.848;2022-10-19T11:17:23;99463.60;;;12.39;63.60
62436;BME280;48480;50.252;18.848;2022-10-19T11:19:51;99465.20;;;12.44;63.37
62436;BME280;48480;50.252;18.848;2022-10-19T11:22:22;99464.02;;;12.49;62.94
62436;BME280;48480;50.252;18.848;2022-10-19T11:28:14;99469.11;;;12.53;63.05
62436;BME280;48480;50.252;18.848;2022-10-19T11:30:56;99456.57;;;12.60;62.95
62436;BME280;48480;50.252;18.848;2022-10-19T11:38:58;99448.70;;;12.83;61.85
62436;BME280;48480;50.252;18.848;2022-10-19T11:41:37;99445.55;;;12.94;62.11
62436;BME280;48480;50.252;18.848;2022-10-19T11:47:07;99436.39;;;13.03;59.37
62436;BME280;48480;50.252;18.848;2022-10-19T11:55:27;99442.41;;;12.92;59.21
62436;BME280;48480;50.252;18.848;2022-10-19T12:01:14;99438.14;;;12.75;59.85
62436;BME280;48480;50.252;18.848;2022-10-19T12:04:05;99437.46;;;12.67;60.04
62436;BME280;48480;50.252;18.848;2022-10-19T12:09:35;99434.77;;;12.53;60.37
62436;BME280;48480;50.252;18.848;2022-10-19T12:14:45;99427.53;;;12.49;60.88
62436;BME280;48480;50.252;18.848;2022-10-19T12:17:28;99426.77;;;12.55;60.99
62436;BME280;48480;50.252;18.848;2022-10-19T12:19:57;99426.95;;;12.63;61.18
62436;BME280;48480;50.252;18.848;2022-10-19T12:22:28;99424.24;;;12.68;61.07
62436;BME280;48480;50.252;18.848;2022-10-19T12:24:57;99427.48;;;12.74;61.14
62436;BME280;48480;50.252;18.848;2022-10-19T12:27:30;99424.20;;;12.79;60.75
62436;BME280;48480;50.252;18.848;2022-10-19T12:30:05;99416.24;;;12.83;60.55
62436;BME280;48480;50.252;18.848;2022-10-19T12:32:38;99420.83;;;12.87;60.34
62436;BME280;48480;50.252;18.848;2022-10-19T12:35:18;99422.31;;;12.83;59.85
62436;BME280;48480;50.252;18.848;2022-10-19T12:37:57;99425.19;;;12.81;60.22
62436;BME280;48480;50.252;18.848;2022-10-19T12:40:42;99423.85;;;12.80;60.25
62436;BME280;48480;50.252;18.848;2022-10-19T12:43:19;99423.40;;;12.76;60.02
62436;BME280;48480;50.252;18.848;2022-10-19T12:45:59;99418.46;;;12.76;60.36
62436;BME280;48480;50.252;18.848;2022-10-19T12:48:27;99417.98;;;12.75;60.11
62436;BME280;48480;50.252;18.848;2022-10-19T12:53:34;99410.37;;;12.60;60.10
62436;BME280;48480;50.252;18.848;2022-10-19T12:58:48;99414.90;;;12.60;60.80
62436;BME280;48480;50.252;18.848;2022-10-19T13:01:27;99418.04;;;12.62;61.18
62436;BME280;48480;50.252;18.848;2022-10-19T13:04:17;99420.88;;;12.67;61.46
62436;BME280;48480;50.252;18.848;2022-10-19T13:07:14;99419.66;;;12.71;61.60
62436;BME280;48480;50.252;18.848;2022-10-19T13:09:46;99424.15;;;12.77;61.77
62436;BME280;48480;50.252;18.848;2022-10-19T13:25:34;99433.56;;;12.91;61.46
62436;BME280;48480;50.252;18.848;2022-10-19T13:33:46;99400.15;;;12.74;61.97
62436;BME280;48480;50.252;18.848;2022-10-19T13:36:31;99430.33;;;12.97;62.11
62436;BME280;48480;50.252;18.848;2022-10-19T13:39:11;99437.80;;;13.05;62.20
62436;BME280;48480;50.252;18.848;2022-10-19T13:41:53;99434.13;;;13.11;62.10
62436;BME280;48480;50.252;18.848;2022-10-19T13:44:46;99436.80;;;13.10;61.87
62436;BME280;48480;50.252;18.848;2022-10-19T13:47:36;99438.59;;;13.05;62.02
62436;BME280;48480;50.252;18.848;2022-10-19T13:50:21;99435.50;;;13.03;62.11
62436;BME280;48480;50.252;18.848;2022-10-19T13:56:19;99431.54;;;13.03;62.10
62436;BME280;48480;50.252;18.848;2022-10-19T13:59:37;99431.05;;;13.02;62.28
62436;BME280;48480;50.252;18.848;2022-10-19T14:11:33;99433.02;;;12.86;62.42
62436;BME280;48480;50.252;18.848;2022-10-19T14:14:18;99426.59;;;12.78;62.50
62436;BME280;48480;50.252;18.848;2022-10-19T14:17:16;99436.48;;;12.81;62.20
62436;BME280;48480;50.252;18.848;2022-10-19T14:19:57;99440.34;;;12.77;62.24
62436;BME280;48480;50.252;18.848;2022-10-19T14:22:34;99439.85;;;12.73;62.21
62436;BME280;48480;50.252;18.848;2022-10-19T14:25:26;99438.98;;;12.75;62.45
62436;BME280;48480;50.252;18.848;2022-10-19T14:28:14;99402.03;;;12.42;62.20
62436;BME280;48480;50.252;18.848;2022-10-19T14:31:09;99431.47;;;12.46;62.37
62436;BME280;48480;50.252;18.848;2022-10-19T14:33:56;99441.04;;;12.44;62.85
62436;BME280;48480;50.252;18.848;2022-10-19T14:36:24;99438.73;;;12.44;63.16
62436;BME280;48480;50.252;18.848;2022-10-19T14:38:57;99428.15;;;12.36;63.31
62436;BME280;48480;50.252;18.848;2022-10-19T14:44:27;99437.55;;;12.29;63.79
62436;BME280;48480;50.252;18.848;2022-10-19T14:47:10;99438.64;;;12.23;63.82
62436;BME280;48480;50.252;18.848;2022-10-19T14:49:40;99420.14;;;12.05;63.89
62436;BME280;48480;50.252;18.848;2022-10-19T14:52:08;99435.75;;;12.18;64.02
62436;BME280;48480;50.252;18.848;2022-10-19T14:54:41;99397.89;;;11.90;64.25
62436;BME280;48480;50.252;18.848;2022-10-19T14:57:22;99437.17;;;12.14;64.08
62436;BME280;48480;50.252;18.848;2022-10-19T15:00:02;99437.88;;;12.14;64.10
62436;BME280;48480;50.252;18.848;2022-10-19T15:02:41;99443.27;;;12.11;64.10
62436;BME280;48480;50.252;18.848;2022-10-19T15:05:28;99440.85;;;12.03;63.92
62436;BME280;48480;50.252;18.848;2022-10-19T15:08:14;99430.95;;;11.92;64.22
62436;BME280;48480;50.252;18.848;2022-10-19T15:10:47;99430.27;;;11.88;64.50
62436;BME280;48480;50.252;18.848;2022-10-19T15:13:28;99432.35;;;11.88;64.72
62436;BME280;48480;50.252;18.848;2022-10-19T15:16:24;99430.79;;;11.89;64.65
62436;BME280;48480;50.252;18.848;2022-10-19T15:18:54;99430.84;;;11.86;64.89
62436;BME280;48480;50.252;18.848;2022-10-19T15:21:30;99422.68;;;11.79;65.08
62436;BME280;48480;50.252;18.848;2022-10-19T15:27:17;99441.03;;;11.71;65.13
62436;BME280;48480;50.252;18.848;2022-10-19T15:33:08;99448.30;;;11.62;65.59
62436;BME280;48480;50.252;18.848;2022-10-19T15:35:44;99412.70;;;11.36;65.67
62436;BME280;48480;50.252;18.848;2022-10-19T15:38:18;99445.79;;;11.51;65.89
62436;BME280;48480;50.252;18.848;2022-10-19T15:40:49;99447.77;;;11.47;66.08
62436;BME280;48480;50.252;18.848;2022-10-19T15:43:48;99415.65;;;11.22;66.32
62436;BME280;48480;50.252;18.848;2022-10-19T15:46:53;99409.73;;;11.04;66.49
62436;BME280;48480;50.252;18.848;2022-10-19T15:52:22;99461.70;;;11.21;66.96
62436;BME280;48480;50.252;18.848;2022-10-19T15:54:49;99469.52;;;11.19;67.18
62436;BME280;48480;50.252;18.848;2022-10-19T15:59:50;99466.55;;;11.07;67.42
62436;BME280;48480;50.252;18.848;2022-10-19T16:02:15;99469.90;;;11.02;67.59
62436;BME280;48480;50.252;18.848;2022-10-19T16:04:41;99470.05;;;10.96;67.81
62436;BME280;48480;50.252;18.848;2022-10-19T16:07:08;99477.66;;;10.94;67.99
62436;BME280;48480;50.252;18.848;2022-10-19T16:09:38;99477.08;;;10.93;68.11
62436;BME280;48480;50.252;18.848;2022-10-19T16:12:04;99479.29;;;10.92;68.38
62436;BME280;48480;50.252;18.848;2022-10-19T16:14:29;99480.79;;;10.93;68.56
62436;BME280;48480;50.252;18.848;2022-10-19T16:16:55;99478.83;;;10.91;68.60
62436;BME280;48480;50.252;18.848;2022-10-19T16:19:20;99485.45;;;10.97;68.53
62436;BME280;48480;50.252;18.848;2022-10-19T16:21:46;99491.07;;;11.01;68.58
62436;BME280;48480;50.252;18.848;2022-10-19T16:24:11;99483.80;;;11.00;68.50
62436;BME280;48480;50.252;18.848;2022-10-19T16:26:37;99493.75;;;11.08;68.46
62436;BME280;48480;50.252;18.848;2022-10-19T16:29:02;99492.34;;;11.12;68.31
62436;BME280;48480;50.252;18.848;2022-10-19T16:31:28;99501.67;;;11.17;68.32
62436;BME280;48480;50.252;18.848;2022-10-19T16:33:53;99497.77;;;11.21;68.29
62436;BME280;48480;50.252;18.848;2022-10-19T16:36:19;99496.73;;;11.23;68.21
62436;BME280;48480;50.252;18.848;2022-10-19T16:38:45;99500.02;;;11.26;68.26
62436;BME280;48480;50.252;18.848;2022-10-19T16:41:11;99504.52;;;11.30;68.14
62436;BME280;48480;50.252;18.848;2022-10-19T16:43:37;99507.64;;;11.33;67.97
62436;BME280;48480;50.252;18.848;2022-10-19T16:46:03;99506.55;;;11.34;67.90
62436;BME280;48480;50.252;18.848;2022-10-19T16:48:30;99506.45;;;11.34;67.97
62436;BME280;48480;50.252;18.848;2022-10-19T16:53:37;99515.11;;;11.37;67.86
62436;BME280;48480;50.252;18.848;2022-10-19T16:56:08;99512.20;;;11.40;67.74
62436;BME280;48480;50.252;18.848;2022-10-19T16:58:34;99513.95;;;11.41;67.66
62436;BME280;48480;50.252;18.848;2022-10-19T17:01:15;99521.55;;;11.42;67.53
62436;BME280;48480;50.252;18.848;2022-10-19T17:03:46;99520.22;;;11.42;67.46
62436;BME280;48480;50.252;18.848;2022-10-19T17:06:14;99527.75;;;11.42;67.54
62436;BME280;48480;50.252;18.848;2022-10-19T17:08:40;99524.75;;;11.38;67.53
62436;BME280;48480;50.252;18.848;2022-10-19T17:11:11;99529.48;;;11.44;67.55
62436;BME280;48480;50.252;18.848;2022-10-19T17:13:37;99531.31;;;11.44;67.56
62436;BME280;48480;50.252;18.848;2022-10-19T17:16:04;99536.33;;;11.43;67.51
62436;BME280;48480;50.252;18.848;2022-10-19T17:18:30;99537.70;;;11.45;67.48
62436;BME280;48480;50.252;18.848;2022-10-19T17:21:01;99536.52;;;11.47;67.43
62436;BME280;48480;50.252;18.848;2022-10-19T17:23:27;99537.92;;;11.46;67.54
62436;BME280;48480;50.252;18.848;2022-10-19T17:25:52;99535.64;;;11.48;67.66
62436;BME280;48480;50.252;18.848;2022-10-19T17:28:18;99539.60;;;11.46;67.56
62436;BME280;48480;50.252;18.848;2022-10-19T17:30:43;99541.63;;;11.47;67.73
62436;BME280;48480;50.252;18.848;2022-10-19T17:33:09;99545.77;;;11.50;67.66
62436;BME280;48480;50.252;18.848;2022-10-19T17:35:35;99547.11;;;11.54;67.58
62436;BME280;48480;50.252;18.848;2022-10-19T17:38:00;99545.23;;;11.53;67.71
62436;BME280;48480;50.252;18.848;2022-10-19T17:40:26;99559.73;;;11.54;67.77
62436;BME280;48480;50.252;18.848;2022-10-19T17:42:51;99559.85;;;11.56;67.83
62436;BME280;48480;50.252;18.848;2022-10-19T17:45:16;99562.09;;;11.58;67.93
62436;BME280;48480;50.252;18.848;2022-10-19T17:47:42;99570.23;;;11.59;68.07
62436;BME280;48480;50.252;18.848;2022-10-19T17:50:08;99575.59;;;11.60;68.17
62436;BME280;48480;50.252;18.848;2022-10-19T17:52:33;99573.87;;;11.61;68.42
62436;BME280;48480;50.252;18.848;2022-10-19T17:54:59;99574.27;;;11.62;68.64
62436;BME280;48480;50.252;18.848;2022-10-19T17:57:24;99574.26;;;11.62;68.71
62436;BME280;48480;50.252;18.848;2022-10-19T17:59:52;99575.14;;;11.62;68.52
62436;BME280;48480;50.252;18.848;2022-10-19T18:02:19;99573.02;;;11.53;68.03
62436;BME280;48480;50.252;18.848;2022-10-19T18:04:45;99572.80;;;11.46;68.17
62436;BME280;48480;50.252;18.848;2022-10-19T18:07:10;99577.69;;;11.44;68.28
62436;BME280;48480;50.252;18.848;2022-10-19T18:09:35;99575.42;;;11.44;68.32
62436;BME280;48480;50.252;18.848;2022-10-19T18:12:01;99577.98;;;11.46;68.49
62436;BME280;48480;50.252;18.848;2022-10-19T18:14:27;99576.00;;;11.49;68.46
62436;BME280;48480;50.252;18.848;2022-10-19T18:16:53;99578.34;;;11.49;68.61
62436;BME280;48480;50.252;18.848;2022-10-19T18:19:18;99582.14;;;11.50;68.64
62436;BME280;48480;50.252;18.848;2022-10-19T18:21:45;99583.23;;;11.52;68.71
62436;BME280;48480;50.252;18.848;2022-10-19T18:24:14;99577.63;;;11.54;68.72
62436;BME280;48480;50.252;18.848;2022-10-19T18:26:43;99583.02;;;11.56;68.92
62436;BME280;48480;50.252;18.848;2022-10-19T18:29:11;99589.85;;;11.59;68.93
62436;BME280;48480;50.252;18.848;2022-10-19T18:31:40;99583.80;;;11.61;68.85
62436;BME280;48480;50.252;18.848;2022-10-19T18:34:11;99585.53;;;11.63;68.75
62436;BME280;48480;50.252;18.848;2022-10-19T18:36:37;99584.59;;;11.65;68.77
62436;BME280;48480;50.252;18.848;2022-10-19T18:39:04;99582.73;;;11.64;68.76
62436;BME280;48480;50.252;18.848;2022-10-19T18:41:30;99584.91;;;11.66;68.93
62436;BME280;48480;50.252;18.848;2022-10-19T18:44:03;99578.45;;;11.62;68.92
62436;BME280;48480;50.252;18.848;2022-10-19T18:46:31;99588.81;;;11.70;68.87
62436;BME280;48480;50.252;18.848;2022-10-19T18:48:58;99588.48;;;11.71;68.86
62436;BME280;48480;50.252;18.848;2022-10-19T18:51:23;99588.86;;;11.69;68.82
62436;BME280;48480;50.252;18.848;2022-10-19T18:53:49;99594.95;;;11.68;69.04
62436;BME280;48480;50.252;18.848;2022-10-19T18:56:20;99596.66;;;11.67;68.99
62436;BME280;48480;50.252;18.848;2022-10-19T18:58:46;99592.62;;;11.64;69.30
62436;BME280;48480;50.252;18.848;2022-10-19T19:01:16;99593.11;;;11.63;69.40
62436;BME280;48480;50.252;18.848;2022-10-19T19:03:43;99598.55;;;11.63;69.44
62436;BME280;48480;50.252;18.848;2022-10-19T19:06:12;99601.65;;;11.61;69.66
62436;BME280;48480;50.252;18.848;2022-10-19T19:08:39;99601.95;;;11.62;69.49
62436;BME280;48480;50.252;18.848;2022-10-19T19:11:13;99601.86;;;11.60;69.44
62436;BME280;48480;50.252;18.848;2022-10-19T19:13:41;99606.14;;;11.59;69.40
62436;BME280;48480;50.252;18.848;2022-10-19T19:16:08;99606.82;;;11.56;69.20
62436;BME280;48480;50.252;18.848;2022-10-19T19:18:34;99605.52;;;11.54;69.04
62436;BME280;48480;50.252;18.848;2022-10-19T19:21:01;99605.56;;;11.52;69.01
62436;BME280;48480;50.252;18.848;2022-10-19T19:23:27;99606.73;;;11.49;69.03
62436;BME280;48480;50.252;18.848;2022-10-19T19:25:53;99609.66;;;11.47;69.10
62436;BME280;48480;50.252;18.848;2022-10-19T19:28:19;99613.61;;;11.45;69.10
62436;BME280;48480;50.252;18.848;2022-10-19T19:30:45;99611.77;;;11.40;69.04
62436;BME280;48480;50.252;18.848;2022-10-19T19:33:13;99615.97;;;11.38;69.15
62436;BME280;48480;50.252;18.848;2022-10-19T19:35:43;99621.46;;;11.34;68.96
62436;BME280;48480;50.252;18.848;2022-10-19T19:38:10;99620.55;;;11.29;68.71
62436;BME280;48480;50.252;18.848;2022-10-19T19:40:43;99627.19;;;11.20;68.73
62436;BME280;48480;50.252;18.848;2022-10-19T19:43:12;99627.52;;;11.16;68.80
62436;BME280;48480;50.252;18.848;2022-10-19T19:45:39;99629.01;;;11.13;68.87
62436;BME280;48480;50.252;18.848;2022-10-19T19:48:07;99637.58;;;11.11;68.86
62436;BME280;48480;50.252;18.848;2022-10-19T19:50:33;99639.34;;;11.08;68.98
62436;BME280;48480;50.252;18.848;2022-10-19T19:53:00;99642.05;;;11.06;68.93
62436;BME280;48480;50.252;18.848;2022-10-19T19:55:26;99644.23;;;11.03;68.93
62436;BME280;48480;50.252;18.848;2022-10-19T19:57:53;99645.52;;;11.03;68.98